createdAt,value
2022-08-20T00:00:28.650Z,101575.50
2022-08-20T00:03:01.362Z,101571.34
2022-08-20T00:05:36.018Z,101565.03
2022-08-20T00:08:04.063Z,101562.03
2022-08-20T00:10:32.153Z,101557.66
2022-08-20T00:12:59.018Z,101563.94
2022-08-20T00:15:31.497Z,101564.56
2022-08-20T00:17:58.487Z,101566.22
2022-08-20T00:20:35.693Z,101569.28
2022-08-20T00:23:03.712Z,101571.78
2022-08-20T00:25:32.414Z,101576.16
2022-08-20T00:27:59.493Z,101579.75
2022-08-20T00:30:27.140Z,101579.50
2022-08-20T00:32:58.590Z,101581.63
2022-08-20T00:35:29.091Z,101576.66
2022-08-20T00:38:00.072Z,101573.34
2022-08-20T00:40:32.094Z,101575.00
2022-08-20T00:43:02.122Z,101577.72
2022-08-20T00:45:31.145Z,101576.31
2022-08-20T00:47:57.976Z,101569.16
2022-08-20T00:50:32.466Z,101575.97
2022-08-20T00:52:59.559Z,101570.50
2022-08-20T00:55:31.398Z,101574.34
2022-08-20T00:58:03.117Z,101568.25
2022-08-20T01:00:34.651Z,101574.34
2022-08-20T01:03:01.396Z,101578.13
2022-08-20T01:05:29.892Z,101578.13
2022-08-20T01:07:57.451Z,101573.97
2022-08-20T01:10:27.675Z,101566.81
2022-08-20T01:12:59.360Z,101565.91
2022-08-20T01:15:30.941Z,101564.81
2022-08-20T01:18:00.223Z,101561.88
2022-08-20T01:20:52.324Z,101572.56
2022-08-20T01:23:36.979Z,101567.56
2022-08-20T01:26:09.552Z,101564.00
2022-08-20T01:28:41.338Z,101569.25
2022-08-20T01:31:11.716Z,101584.31
2022-08-20T01:33:38.808Z,101581.38
2022-08-20T01:36:06.542Z,101581.09
2022-08-20T01:38:34.386Z,101589.88
2022-08-20T01:41:28.626Z,101578.63
2022-08-20T01:43:56.958Z,101576.94
2022-08-20T01:46:28.421Z,101587.88
2022-08-20T01:48:57.053Z,101576.38
2022-08-20T01:51:27.813Z,101583.50
2022-08-20T01:53:56.528Z,101579.94
2022-08-20T01:56:27.478Z,101584.59
2022-08-20T01:58:59.023Z,101580.75
2022-08-20T02:01:30.352Z,101581.84
2022-08-20T02:03:57.049Z,101569.47
2022-08-20T02:06:25.646Z,101579.34
2022-08-20T02:08:55.450Z,101576.59
2022-08-20T02:11:23.295Z,101583.16
2022-08-20T02:13:52.233Z,101585.31
2022-08-20T02:16:21.597Z,101591.28
2022-08-20T02:18:54.224Z,101584.97
2022-08-20T02:21:23.486Z,101589.59
2022-08-20T02:23:50.071Z,101586.63
2022-08-20T02:26:19.069Z,101587.69
2022-08-20T02:28:50.818Z,101583.31
2022-08-20T02:31:19.076Z,101577.25
2022-08-20T02:34:21.567Z,101577.50
2022-08-20T02:36:32.598Z,101576.31
2022-08-20T02:38:59.238Z,101583.91
2022-08-20T02:41:25.790Z,101593.22
2022-08-20T02:43:52.225Z,101584.19
2022-08-20T02:46:19.297Z,101583.34
2022-08-20T02:48:45.719Z,101590.34
2022-08-20T02:51:12.359Z,101583.19
2022-08-20T02:53:44.456Z,101585.09
2022-08-20T02:56:11.213Z,101587.25
2022-08-20T02:58:39.878Z,101579.28
2022-08-20T03:01:09.568Z,101579.53
2022-08-20T03:03:36.025Z,101581.44
2022-08-20T03:06:02.723Z,101578.97
2022-08-20T03:08:29.312Z,101578.09
2022-08-20T03:10:56.645Z,101580.25
2022-08-20T03:13:24.185Z,101581.81
2022-08-20T03:15:58.429Z,101592.13
2022-08-20T03:18:28.687Z,101591.22
2022-08-20T03:20:55.150Z,101591.94
2022-08-20T03:23:22.510Z,101588.03
2022-08-20T03:25:49.523Z,101587.66
2022-08-20T03:28:16.270Z,101587.06
2022-08-20T03:30:43.133Z,101588.59
2022-08-20T03:33:10.221Z,101594.56
2022-08-20T03:35:38.225Z,101591.84
2022-08-20T03:38:10.829Z,101588.28
2022-08-20T03:40:38.385Z,101585.56
2022-08-20T03:43:08.560Z,101587.19
2022-08-20T03:45:37.198Z,101584.47
2022-08-20T03:48:07.464Z,101584.69
2022-08-20T03:50:35.166Z,101588.50
2022-08-20T03:53:01.665Z,101598.59
2022-08-20T03:55:30.608Z,101595.03
2022-08-20T03:58:02.566Z,101598.84
2022-08-20T04:00:39.354Z,101598.25
2022-08-20T04:03:06.414Z,101599.56
2022-08-20T04:05:34.286Z,101598.72
2022-08-20T04:08:03.657Z,101605.03
2022-08-20T04:10:31.962Z,101605.03
2022-08-20T04:12:58.354Z,101607.53
2022-08-20T04:15:26.745Z,101602.88
2022-08-20T04:17:54.077Z,101606.44
2022-08-20T04:20:25.905Z,101605.88
2022-08-20T04:22:59.475Z,101606.09
2022-08-20T04:25:31.418Z,101613.47
2022-08-20T04:28:06.432Z,101610.16
2022-08-20T04:30:33.511Z,101613.09
2022-08-20T04:33:00.870Z,101608.72
2022-08-20T04:35:28.610Z,101613.59
2022-08-20T04:38:06.637Z,101611.06
2022-08-20T04:40:53.994Z,101608.22
2022-08-20T04:43:23.141Z,101612.50
2022-08-20T04:45:51.892Z,101614.88
2022-08-20T04:48:20.324Z,101621.88
2022-08-20T04:50:46.966Z,101623.16
2022-08-20T04:53:17.646Z,101632.03
2022-08-20T04:55:45.976Z,101633.81
2022-08-20T04:58:18.162Z,101638.09
2022-08-20T05:00:49.703Z,101639.63
2022-08-20T05:03:17.508Z,101637.09
2022-08-20T05:05:45.169Z,101639.50
2022-08-20T05:08:19.882Z,101635.34
2022-08-20T05:10:47.262Z,101651.09
2022-08-20T05:13:13.669Z,101646.94
2022-08-20T05:15:40.358Z,101649.06
2022-08-20T05:18:08.422Z,101649.31
2022-08-20T05:20:40.013Z,101651.44
2022-08-20T05:23:09.377Z,101652.75
2022-08-20T05:25:36.601Z,101652.13
2022-08-20T05:28:09.478Z,101659.28
2022-08-20T05:30:37.798Z,101651.09
2022-08-20T05:33:06.217Z,101650.22
2022-08-20T05:35:35.745Z,101656.31
2022-08-20T05:38:02.517Z,101655.69
2022-08-20T05:40:28.928Z,101658.19
2022-08-20T05:42:55.353Z,101662.00
2022-08-20T05:45:22.154Z,101663.41
2022-08-20T05:47:56.630Z,101658.78
2022-08-20T05:50:23.606Z,101663.78
2022-08-20T05:52:50.462Z,101661.06
2022-08-20T05:55:16.958Z,101671.53
2022-08-20T05:57:43.394Z,101675.66
2022-08-20T06:00:13.332Z,101667.47
2022-08-20T06:02:58.890Z,101676.28
2022-08-20T06:05:25.621Z,101671.19
2022-08-20T06:07:53.619Z,101671.78
2022-08-20T06:10:21.406Z,101674.66
2022-08-20T06:12:47.912Z,101670.41
2022-08-20T06:15:15.580Z,101673.00
2022-08-20T06:17:42.060Z,101679.69
2022-08-20T06:20:09.681Z,101672.50
2022-08-20T06:22:36.421Z,101679.16
2022-08-20T06:25:03.844Z,101674.63
2022-08-20T06:27:31.205Z,101675.56
2022-08-20T06:29:57.648Z,101675.13
2022-08-20T06:32:31.882Z,101675.72
2022-08-20T06:35:04.337Z,101674.66
2022-08-20T06:37:32.075Z,101673.56
2022-08-20T06:40:09.649Z,101679.28
2022-08-20T06:42:36.666Z,101672.16
2022-08-20T06:45:05.631Z,101682.03
2022-08-20T06:47:32.835Z,101679.03
2022-08-20T06:49:59.303Z,101684.16
2022-08-20T06:52:48.067Z,101676.78
2022-08-20T06:55:12.149Z,101686.53
2022-08-20T06:57:39.050Z,101690.47
2022-08-20T07:00:08.375Z,101689.38
2022-08-20T07:02:35.837Z,101681.69
2022-08-20T07:05:04.790Z,101682.72
2022-08-20T07:07:32.750Z,101679.53
2022-08-20T07:10:04.532Z,101680.34
2022-08-20T07:12:30.973Z,101686.66
2022-08-20T07:14:57.537Z,101687.50
2022-08-20T07:17:24.318Z,101693.09
2022-08-20T07:19:50.816Z,101695.09
2022-08-20T07:22:17.542Z,101697.13
2022-08-20T07:24:48.940Z,101702.84
2022-08-20T07:27:20.501Z,101696.75
2022-08-20T07:30:05.392Z,101695.22
2022-08-20T07:32:36.822Z,101694.50
2022-08-20T07:35:07.429Z,101694.63
2022-08-20T07:37:38.927Z,101701.03
2022-08-20T07:40:07.714Z,101704.84
2022-08-20T07:42:34.514Z,101707.34
2022-08-20T07:45:00.937Z,101705.22
2022-08-20T07:47:27.349Z,101715.00
2022-08-20T07:49:53.776Z,101716.28
2022-08-20T07:52:20.218Z,101714.84
2022-08-20T07:54:46.646Z,101714.84
2022-08-20T07:57:13.061Z,101720.47
2022-08-20T07:59:39.518Z,101720.78
2022-08-20T08:02:06.144Z,101721.50
2022-08-20T08:04:32.624Z,101725.88
2022-08-20T08:07:00.431Z,101723.16
2022-08-20T08:09:28.393Z,101725.78
2022-08-20T08:11:57.459Z,101724.84
2022-08-20T08:14:29.314Z,101720.53
2022-08-20T08:16:59.714Z,101729.06
2022-08-20T08:19:33.717Z,101729.06
2022-08-20T08:22:00.200Z,101729.06
2022-08-20T08:24:28.432Z,101727.53
2022-08-20T08:26:55.170Z,101726.81
2022-08-20T08:29:21.588Z,101732.03
2022-08-20T08:31:47.983Z,101720.84
2022-08-20T08:34:14.687Z,101731.09
2022-08-20T08:36:44.104Z,101729.16
2022-08-20T08:39:10.628Z,101731.09
2022-08-20T08:41:47.254Z,101732.13
2022-08-20T08:44:29.226Z,101735.38
2022-08-20T08:47:21.608Z,101735.47
2022-08-20T08:49:48.349Z,101729.00
2022-08-20T08:52:22.200Z,101733.75
2022-08-20T08:54:53.563Z,101737.09
2022-08-20T08:57:20.065Z,101738.53
2022-08-20T08:59:58.350Z,101742.19
2022-08-20T09:02:30.715Z,101740.53
2022-08-20T09:05:01.941Z,101742.19
2022-08-20T09:07:33.052Z,101745.28
2022-08-20T09:10:01.325Z,101743.94
2022-08-20T09:12:27.840Z,101747.66
2022-08-20T09:14:54.808Z,101750.16
2022-08-20T09:17:22.839Z,101744.53
2022-08-20T09:19:52.059Z,101738.31
2022-08-20T09:22:22.908Z,101743.31
2022-08-20T09:24:50.163Z,101749.13
2022-08-20T09:27:16.777Z,101744.00
2022-08-20T09:29:43.469Z,101741.34
2022-08-20T09:32:17.358Z,101736.22
2022-08-20T09:34:46.906Z,101734.63
2022-08-20T09:37:14.490Z,101733.53
2022-08-20T09:39:41.226Z,101739.50
2022-08-20T09:42:10.121Z,101742.34
2022-08-20T09:44:36.833Z,101739.09
2022-08-20T09:47:03.550Z,101742.78
2022-08-20T09:49:30.007Z,101749.94
2022-08-20T09:51:57.674Z,101748.84
2022-08-20T09:54:27.948Z,101740.97
2022-08-20T09:56:59.137Z,101734.56
2022-08-20T09:59:26.390Z,101738.69
2022-08-20T10:01:52.828Z,101742.91
2022-08-20T10:04:19.581Z,101739.56
2022-08-20T10:06:46.002Z,101733.75
2022-08-20T10:09:12.437Z,101734.25
2022-08-20T10:11:38.897Z,101732.09
2022-08-20T10:14:05.287Z,101737.91
2022-08-20T10:16:31.822Z,101737.91
2022-08-20T10:18:58.286Z,101739.22
2022-08-20T10:21:24.739Z,101740.06
2022-08-20T10:23:51.149Z,101737.09
2022-08-20T10:26:17.550Z,101738.53
2022-08-20T10:28:44.369Z,101739.09
2022-08-20T10:31:12.412Z,101740.31
2022-08-20T10:33:40.828Z,101739.97
2022-08-20T10:36:08.398Z,101742.47
2022-08-20T10:38:34.809Z,101738.19
2022-08-20T10:41:01.345Z,101736.84
2022-08-20T10:43:28.193Z,101734.69
2022-08-20T10:45:54.733Z,101734.91
2022-08-20T10:48:21.740Z,101736.34
2022-08-20T10:50:49.254Z,101740.84
2022-08-20T10:53:16.098Z,101726.75
2022-08-20T10:55:42.585Z,101736.97
2022-08-20T10:58:11.457Z,101736.31
2022-08-20T11:00:39.003Z,101727.94
2022-08-20T11:03:05.566Z,101716.22
2022-08-20T11:05:32.098Z,101718.03
2022-08-20T11:07:59.644Z,101722.63
2022-08-20T11:10:28.811Z,101722.78
2022-08-20T11:12:55.409Z,101722.63
2022-08-20T11:15:22.010Z,101720.28
2022-08-20T11:17:48.460Z,101720.41
2022-08-20T11:20:17.993Z,101728.91
2022-08-20T11:22:44.404Z,101737.19
2022-08-20T11:25:11.052Z,101733.63
2022-08-20T11:27:48.112Z,101738.22
2022-08-20T11:30:22.399Z,101744.53
2022-08-20T11:32:48.833Z,101738.44
2022-08-20T11:35:40.947Z,101735.16
2022-08-20T11:38:03.360Z,101737.22
2022-08-20T11:40:30.505Z,101733.59
2022-08-20T11:45:46.370Z,101733.41
2022-08-20T11:48:13.323Z,101727.84
2022-08-20T11:50:40.048Z,101730.09
2022-08-20T11:53:08.013Z,101724.66
2022-08-20T11:55:35.628Z,101721.75
2022-08-20T11:58:02.862Z,101727.69
2022-08-20T12:00:32.787Z,101727.00
2022-08-20T12:03:05.108Z,101728.72
2022-08-20T12:05:32.598Z,101737.66
2022-08-20T12:08:01.288Z,101731.13
2022-08-20T12:10:28.588Z,101723.72
2022-08-20T12:12:56.331Z,101725.63
2022-08-20T12:15:23.676Z,101729.28
2022-08-20T12:17:50.116Z,101728.44
2022-08-20T12:20:16.757Z,101727.53
2022-08-20T12:22:44.486Z,101730.16
2022-08-20T12:25:11.997Z,101727.59
2022-08-20T12:27:39.219Z,101728.34
2022-08-20T12:30:12.559Z,101728.25
2022-08-20T12:32:39.200Z,101722.22
2022-08-20T12:35:07.266Z,101732.41
2022-08-20T12:37:34.343Z,101729.34
2022-08-20T12:40:02.535Z,101720.03
2022-08-20T12:42:31.856Z,101727.31
2022-08-20T12:44:59.619Z,101725.06
2022-08-20T12:47:29.756Z,101722.25
2022-08-20T12:50:04.700Z,101713.78
2022-08-20T12:52:32.542Z,101721.84
2022-08-20T12:55:00.414Z,101725.47
2022-08-20T12:57:31.364Z,101720.28
2022-08-20T13:00:06.970Z,101727.34
2022-08-20T13:02:33.600Z,101715.38
2022-08-20T13:05:04.660Z,101721.47
2022-08-20T13:07:32.409Z,101717.94
2022-08-20T13:09:59.813Z,101722.88
2022-08-20T13:12:26.294Z,101725.31
2022-08-20T13:14:52.809Z,101726.31
2022-08-20T13:17:20.061Z,101721.19
2022-08-20T13:19:58.242Z,101725.69
2022-08-20T13:22:24.691Z,101724.25
2022-08-20T13:24:51.154Z,101718.34
2022-08-20T13:27:19.548Z,101719.13
2022-08-20T13:29:47.987Z,101717.38
2022-08-20T13:32:14.870Z,101708.00
2022-08-20T13:34:41.274Z,101706.63
2022-08-20T13:37:16.064Z,101707.00
2022-08-20T13:39:43.656Z,101698.41
2022-08-20T13:42:11.924Z,101704.41
2022-08-20T13:44:39.273Z,101703.06
2022-08-20T13:47:23.898Z,101705.91
2022-08-20T13:49:58.407Z,101704.78
2022-08-20T13:52:26.061Z,101707.34
2022-08-20T13:54:52.755Z,101710.94
2022-08-20T13:57:21.340Z,101697.69
2022-08-20T13:59:53.486Z,101709.13
2022-08-20T14:02:20.345Z,101706.63
2022-08-20T14:04:48.378Z,101710.19
2022-08-20T14:07:17.943Z,101714.47
2022-08-20T14:09:48.113Z,101718.47
2022-08-20T14:12:16.302Z,101720.81
2022-08-20T14:14:43.823Z,101720.13
2022-08-20T14:17:19.750Z,101715.97
2022-08-20T14:19:48.444Z,101711.81
2022-08-20T14:22:17.652Z,101711.22
2022-08-20T14:24:45.049Z,101709.59
2022-08-20T14:27:13.610Z,101725.09
2022-08-20T14:29:41.573Z,101721.47
2022-08-20T14:32:08.162Z,101726.81
2022-08-20T14:34:35.382Z,101726.38
2022-08-20T14:37:13.737Z,101721.97
2022-08-20T14:39:40.887Z,101719.69
2022-08-20T14:42:07.549Z,101726.69
2022-08-20T14:44:34.033Z,101715.97
2022-08-20T14:47:18.367Z,101716.25
2022-08-20T14:49:45.840Z,101722.28
2022-08-20T14:52:13.766Z,101721.09
2022-08-20T14:54:41.324Z,101724.66
2022-08-20T14:57:12.955Z,101718.31
2022-08-20T14:59:40.605Z,101713.16
2022-08-20T15:02:09.862Z,101712.66
2022-08-20T15:04:37.020Z,101722.00
2022-08-20T15:07:10.896Z,101723.56
2022-08-20T15:09:39.957Z,101718.66
2022-08-20T15:12:06.428Z,101725.25
2022-08-20T15:14:32.870Z,101731.47
2022-08-20T15:17:00.031Z,101732.03
2022-08-20T15:19:26.433Z,101724.16
2022-08-20T15:21:52.841Z,101725.31
2022-08-20T15:24:19.687Z,101723.09
2022-08-20T15:26:46.447Z,101719.25
2022-08-20T15:29:13.273Z,101730.97
2022-08-20T15:31:50.354Z,101727.09
2022-08-20T15:34:17.692Z,101726.75
2022-08-20T15:36:45.104Z,101727.44
2022-08-20T15:39:11.522Z,101730.72
2022-08-20T15:41:37.948Z,101732.84
2022-08-20T15:44:04.573Z,101730.06
2022-08-20T15:46:36.186Z,101733.28
2022-08-20T15:49:12.264Z,101731.38
2022-08-20T15:51:44.996Z,101732.47
2022-08-20T15:54:21.538Z,101740.19
2022-08-20T15:56:58.191Z,101736.38
2022-08-20T16:00:11.461Z,101736.31
2022-08-20T16:03:05.908Z,101735.97
2022-08-20T16:05:44.249Z,101738.38
2022-08-20T16:08:34.382Z,101740.63
2022-08-20T16:11:19.914Z,101727.69
2022-08-20T16:13:55.026Z,101728.94
2022-08-20T16:16:33.473Z,101740.91
2022-08-20T16:19:00.326Z,101742.81
2022-08-20T16:21:31.481Z,101738.75
2022-08-20T16:23:58.324Z,101734.03
2022-08-20T16:26:50.819Z,101738.41
2022-08-20T16:29:25.558Z,101744.72
2022-08-20T16:32:03.080Z,101737.59
2022-08-20T16:34:50.793Z,101736.25
2022-08-20T16:37:44.454Z,101740.91
2022-08-20T16:40:24.806Z,101740.56
2022-08-20T16:42:54.881Z,101743.31
2022-08-20T16:45:28.323Z,101740.56
2022-08-20T16:48:00.955Z,101741.09
2022-08-20T16:50:34.876Z,101736.16
2022-08-20T16:53:01.394Z,101745.72
2022-08-20T16:55:27.842Z,101742.41
2022-08-20T16:57:54.882Z,101745.16
2022-08-20T17:00:26.857Z,101746.81
2022-08-20T17:02:56.304Z,101747.28
2022-08-20T17:05:26.974Z,101749.97
2022-08-20T17:08:03.565Z,101742.81
2022-08-20T17:10:56.363Z,101750.78
2022-08-20T17:13:33.260Z,101739.25
2022-08-20T17:16:03.672Z,101732.09
2022-08-20T17:18:39.224Z,101735.81
2022-08-20T17:21:13.482Z,101730.06
2022-08-20T17:23:55.541Z,101741.03
2022-08-20T17:26:46.375Z,101739.88
2022-08-20T17:29:23.762Z,101749.19
2022-08-20T17:31:54.110Z,101731.91
2022-08-20T17:34:25.554Z,101737.66
2022-08-20T17:36:59.181Z,101742.06
2022-08-20T17:39:28.351Z,101746.78
2022-08-20T17:42:05.898Z,101748.09
2022-08-20T17:44:37.622Z,101749.94
2022-08-20T17:47:10.673Z,101748.50
2022-08-20T17:50:08.002Z,101744.59
2022-08-20T17:52:41.651Z,101739.94
2022-08-20T17:55:10.406Z,101745.13
2022-08-20T17:57:40.680Z,101742.88
2022-08-20T18:00:15.433Z,101743.63
2022-08-20T18:02:43.214Z,101736.97
2022-08-20T18:05:18.186Z,101743.03
2022-08-20T18:08:23.694Z,101743.84
2022-08-20T18:11:08.341Z,101746.03
2022-08-20T18:14:00.436Z,101741.84
2022-08-20T18:16:38.825Z,101745.69
2022-08-20T18:19:38.650Z,101732.47
2022-08-20T18:22:20.562Z,101742.03
2022-08-20T18:25:18.010Z,101739.78
2022-08-20T18:27:48.425Z,101738.69
2022-08-20T18:30:21.448Z,101751.81
2022-08-20T18:32:51.119Z,101748.97
2022-08-20T18:35:38.499Z,101753.38
2022-08-20T18:38:21.242Z,101745.16
2022-08-20T18:40:50.050Z,101747.06
2022-08-20T18:43:30.227Z,101752.22
2022-08-20T18:46:07.841Z,101745.78
2022-08-20T18:48:34.274Z,101753.19
2022-08-20T18:51:07.599Z,101747.09
2022-08-20T18:53:34.945Z,101760.81
2022-08-20T18:56:01.317Z,101762.72
2022-08-20T18:58:49.917Z,101764.06
2022-08-20T19:01:19.281Z,101762.88
2022-08-20T19:03:49.374Z,101755.97
2022-08-20T19:06:21.035Z,101757.88
2022-08-20T19:08:59.830Z,101762.75
2022-08-20T19:11:44.893Z,101764.66
2022-08-20T19:14:20.575Z,101760.03
2022-08-20T19:17:02.022Z,101762.19
2022-08-20T19:19:32.718Z,101763.84
2022-08-20T19:22:02.073Z,101759.69
2022-08-20T19:24:31.372Z,101755.97
2022-08-20T19:27:02.236Z,101760.28
2022-08-20T19:29:36.532Z,101762.44
2022-08-20T19:32:08.093Z,101758.28
2022-08-20T19:34:35.693Z,101756.84
2022-08-20T19:37:34.977Z,101748.31
2022-08-20T19:40:20.873Z,101743.31
2022-08-20T19:42:48.243Z,101746.28
2022-08-20T19:45:31.977Z,101748.44
2022-08-20T19:48:26.969Z,101755.56
2022-08-20T19:51:19.410Z,101750.56
2022-08-20T19:53:48.610Z,101752.47
2022-08-20T19:56:21.546Z,101752.72
2022-08-20T19:59:07.285Z,101751.56
2022-08-20T20:01:35.891Z,101753.69
2022-08-20T20:04:06.107Z,101751.44
2022-08-20T20:06:37.510Z,101748.09
2022-08-20T20:09:22.029Z,101746.44
2022-08-20T20:12:02.497Z,101742.06
2022-08-20T20:14:33.918Z,101741.69
2022-08-20T20:17:03.651Z,101742.19
2022-08-20T20:19:30.185Z,101742.66
2022-08-20T20:22:22.616Z,101733.50
2022-08-20T20:25:03.231Z,101728.16
2022-08-20T20:27:31.939Z,101734.59
2022-08-20T20:30:05.530Z,101731.72
2022-08-20T20:32:33.917Z,101724.25
2022-08-20T20:35:04.246Z,101732.69
2022-08-20T20:37:48.833Z,101722.00
2022-08-20T20:40:33.916Z,101730.03
2022-08-20T20:43:09.059Z,101726.13
2022-08-20T20:45:42.522Z,101726.00
2022-08-20T20:48:18.633Z,101724.81
2022-08-20T20:50:46.999Z,101720.66
2022-08-20T20:53:15.697Z,101723.88
2022-08-20T20:55:54.613Z,101725.78
2022-08-20T20:58:21.017Z,101724.94
2022-08-20T21:00:50.114Z,101720.53
2022-08-20T21:03:16.504Z,101715.31
2022-08-20T21:05:43.071Z,101713.63
2022-08-20T21:08:11.183Z,101723.75
2022-08-20T21:10:39.990Z,101724.00
2022-08-20T21:13:08.190Z,101722.78
2022-08-20T21:15:36.592Z,101724.34
2022-08-20T21:18:06.282Z,101725.88
2022-08-20T21:20:33.221Z,101718.41
2022-08-20T21:22:59.988Z,101724.06
2022-08-20T21:25:29.482Z,101716.94
2022-08-20T21:27:56.117Z,101719.94
2022-08-20T21:30:24.617Z,101726.47
2022-08-20T21:32:51.102Z,101723.13
2022-08-20T21:35:18.109Z,101721.94
2022-08-20T21:37:44.501Z,101719.19
2022-08-20T21:40:12.457Z,101713.16
2022-08-20T21:42:40.301Z,101718.84
2022-08-20T21:45:08.802Z,101719.91
2022-08-20T21:47:35.212Z,101722.88
2022-08-20T21:50:02.033Z,101715.97
2022-08-20T21:52:28.511Z,101718.72
2022-08-20T21:54:55.034Z,101720.00
2022-08-20T21:57:25.342Z,101716.91
2022-08-20T21:59:52.275Z,101708.72
2022-08-20T22:02:19.670Z,101705.38
2022-08-20T22:04:46.063Z,101710.84
2022-08-20T22:07:12.667Z,101714.66
2022-08-20T22:09:39.336Z,101709.66
2022-08-20T22:12:13.884Z,101715.13
2022-08-20T22:14:40.303Z,101704.66
2022-08-20T22:17:06.699Z,101712.25
2022-08-20T22:19:33.085Z,101704.28
2022-08-20T22:21:59.511Z,101690.03
2022-08-20T22:24:28.826Z,101699.06
2022-08-20T22:26:55.450Z,101698.25
2022-08-20T22:29:22.334Z,101696.75
2022-08-20T22:31:48.812Z,101692.38
2022-08-20T22:34:18.417Z,101693.44
2022-08-20T22:36:45.029Z,101688.19
2022-08-20T22:39:12.041Z,101690.94
2022-08-20T22:41:38.838Z,101688.44
2022-08-20T22:44:06.325Z,101683.19
2022-08-20T22:46:37.668Z,101677.41
2022-08-20T22:49:06.994Z,101678.69
2022-08-20T22:51:36.741Z,101673.47
2022-08-20T22:54:08.682Z,101665.72
2022-08-20T22:56:35.139Z,101677.13
2022-08-20T22:59:02.029Z,101679.00
2022-08-20T23:01:29.070Z,101684.72
2022-08-20T23:04:01.626Z,101680.31
2022-08-20T23:06:29.458Z,101677.81
2022-08-20T23:08:56.153Z,101684.09
2022-08-20T23:11:22.568Z,101685.38
2022-08-20T23:13:49.086Z,101682.66
2022-08-20T23:16:15.599Z,101682.91
2022-08-20T23:18:42.235Z,101682.91
2022-08-20T23:21:08.707Z,101676.63
2022-08-20T23:23:35.386Z,101674.94
2022-08-20T23:26:02.204Z,101672.44
2022-08-20T23:28:28.701Z,101663.66
2022-08-20T23:30:55.212Z,101659.28
2022-08-20T23:33:21.865Z,101657.00
2022-08-20T23:35:48.497Z,101665.19
2022-08-20T23:38:15.329Z,101661.63
2022-08-20T23:40:42.437Z,101659.94
2022-08-20T23:43:09.258Z,101657.47
2022-08-20T23:45:39.623Z,101664.00
2022-08-20T23:48:06.539Z,101660.81
2022-08-20T23:50:32.974Z,101665.41
2022-08-20T23:52:59.484Z,101661.63
2022-08-20T23:55:26.203Z,101657.22
2022-08-20T23:57:53.172Z,101647.63
